Asbury, Missouri
Current Conditions -  °F | °C
As of 3:53 PM on Friday 24 Oct 2014 (Local Time) from KJLN Reporting Station
Clear Clear  
Wind Chill: 74°   Ceiling: Unl
Heat Index: 74°   Visibility: 10mi
Dew Point: 61°   Wind: 10mph
Humidity: 64%   Direction: 210°SSW
Pressure: 30.04"   Gusts: NA
Location:  37.27°N, 94.61°W
Report Text: KJLN 242053Z 21009KT 10SM CLR 23/16 A3004 RMK AO2 SLP167 T02330161 56018
Loading
Personal Weather Stations






























Interactive Weather Map
Tropical Storm Tracking
New forecast layout! Learn more

10-Day Weather Forecast

Advertisements
Track Severe Weather on mobile